createdAt,value
2018-08-18T00:00:29.234Z,21.00
2018-08-18T00:02:58.665Z,21.00
2018-08-18T00:05:28.056Z,21.00
2018-08-18T00:07:57.515Z,21.00
2018-08-18T00:10:27.014Z,21.00
2018-08-18T00:12:56.511Z,20.90
2018-08-18T00:15:25.875Z,20.90
2018-08-18T00:17:56.315Z,20.90
2018-08-18T00:20:26.422Z,21.10
2018-08-18T00:22:55.759Z,21.20
2018-08-18T00:25:24.601Z,21.40
2018-08-18T00:27:53.551Z,21.60
2018-08-18T00:30:26.976Z,21.60
2018-08-18T00:32:56.461Z,21.80
2018-08-18T00:35:25.807Z,21.80
2018-08-18T00:37:55.365Z,21.90
2018-08-18T00:40:24.715Z,22.00
2018-08-18T00:42:54.170Z,22.10
2018-08-18T00:45:23.565Z,22.20
2018-08-18T00:47:53.007Z,22.20
2018-08-18T00:50:36.077Z,22.20
2018-08-18T00:53:07.195Z,22.20
2018-08-18T00:55:37.321Z,22.20
2018-08-18T00:58:15.803Z,22.00
2018-08-18T01:00:49.296Z,21.90
2018-08-18T01:03:18.660Z,21.90
2018-08-18T01:05:48.058Z,21.90
2018-08-18T01:08:17.476Z,21.90
2018-08-18T01:10:46.136Z,21.80
2018-08-18T01:13:14.760Z,21.80
2018-08-18T01:15:43.490Z,21.80
2018-08-18T01:18:12.072Z,21.70
2018-08-18T01:20:40.737Z,21.70
2018-08-18T01:23:09.427Z,21.60
2018-08-18T01:25:38.145Z,21.60
2018-08-18T01:28:06.869Z,21.50
2018-08-18T01:30:35.530Z,21.20
2018-08-18T01:33:04.888Z,21.10
2018-08-18T01:35:33.540Z,21.00
2018-08-18T01:38:02.224Z,20.80
2018-08-18T01:40:30.875Z,20.80
2018-08-18T01:42:59.552Z,20.80
2018-08-18T01:45:28.228Z,20.80
2018-08-18T01:47:57.665Z,20.80
2018-08-18T01:50:27.086Z,20.90
2018-08-18T01:52:56.435Z,20.90
2018-08-18T01:55:25.940Z,20.90
2018-08-18T01:57:55.370Z,21.00
2018-08-18T02:00:26.901Z,21.00
2018-08-18T02:02:56.264Z,21.00
2018-08-18T02:05:26.903Z,20.90
2018-08-18T02:07:56.400Z,20.90
2018-08-18T02:10:25.878Z,20.90
2018-08-18T02:13:03.376Z,20.80
2018-08-18T02:15:33.144Z,20.80
2018-08-18T02:18:02.491Z,20.80
2018-08-18T02:20:31.921Z,20.70
2018-08-18T02:23:01.420Z,20.80
2018-08-18T02:25:30.832Z,20.80
2018-08-18T02:28:00.203Z,20.80
